Time;durP1;ratioP1;P1;durP2;ratioP2;P2;SDS_P1;SDS_P2;PMS_P1;PMS_P2;Temp;Humidity;BMP_temperature;BMP_pressure;BME280_temperature;BME280_humidity;BME280_pressure;Samples;Min_cycle;Max_cycle;Signal;HPM_P1;HPM_P2
2022/08/20 00:04:23;;;;;;;16.97;9.80;;;;;;;21.36;91.81;98680.80;4232204;82;21058;-85
2022/08/20 00:10:28;;;;;;;17.85;12.35;;;;;;;21.23;92.20;98685.05;4255909;82;20959;-86
2022/08/20 00:16:35;;;;;;;18.70;11.35;;;;;;;21.14;92.91;98683.56;4258030;82;20990;-84
2022/08/20 00:22:38;;;;;;;16.85;11.22;;;;;;;21.12;92.91;98691.61;4254948;82;21074;-84
2022/08/20 00:28:40;;;;;;;15.68;10.68;;;;;;;21.10;93.32;98702.41;4263158;82;21082;-85
2022/08/20 00:34:41;;;;;;;17.10;11.25;;;;;;;21.17;94.42;98699.98;4255678;82;21067;-84
2022/08/20 00:40:48;;;;;;;20.30;11.18;;;;;;;21.29;94.12;98698.53;4235543;82;21032;-84
2022/08/20 00:46:52;;;;;;;15.28;11.88;;;;;;;21.32;94.80;98699.63;4239501;82;21031;-84
2022/08/20 00:52:54;;;;;;;16.05;10.38;;;;;;;21.34;94.73;98678.47;4248086;82;20996;-84
2022/08/20 00:58:56;;;;;;;20.70;10.80;;;;;;;21.26;95.04;98686.92;4239076;82;21023;-85
2022/08/20 01:04:58;;;;;;;14.13;9.68;;;;;;;21.18;95.41;98660.57;4236810;82;21496;-85
2022/08/20 01:11:13;;;;;;;15.95;10.80;;;;;;;21.27;96.04;98668.98;4160916;84;20984;-85
2022/08/20 01:17:22;;;;;;;13.68;11.73;;;;;;;21.27;95.67;98678.72;4241009;82;20988;-84
2022/08/20 01:23:35;;;;;;;16.90;12.15;;;;;;;21.06;95.52;98689.25;4237045;83;20991;-85
2022/08/20 01:29:38;;;;;;;19.15;12.23;;;;;;;20.93;95.98;98692.66;4236777;82;21507;-85
2022/08/20 01:35:42;;;;;;;13.40;11.30;;;;;;;20.82;96.22;98697.03;4236737;82;21067;-84
2022/08/20 01:42:29;;;;;;;21.75;11.57;;;;;;;20.74;96.66;98696.50;4214492;83;21022;-85
2022/08/20 01:48:30;;;;;;;17.92;11.88;;;;;;;20.61;96.83;98700.55;4292507;81;21510;-85
2022/08/20 01:54:32;;;;;;;16.90;12.15;;;;;;;20.61;97.95;98690.19;4258442;82;21011;-85
2022/08/20 02:00:35;;;;;;;16.93;11.10;;;;;;;20.64;97.94;98671.84;4258239;82;21480;-85
2022/08/20 02:06:42;;;;;;;16.02;11.35;;;;;;;20.66;98.33;98676.32;4369080;80;20981;-86
2022/08/20 02:12:43;;;;;;;17.12;12.40;;;;;;;20.57;98.44;98676.23;4373483;80;20971;-84
2022/08/20 02:18:45;;;;;;;18.65;11.95;;;;;;;20.57;98.59;98677.03;4375726;80;20987;-84
2022/08/20 02:24:47;;;;;;;15.83;11.05;;;;;;;20.58;98.88;98679.96;4371373;80;21034;-85
2022/08/20 02:30:54;;;;;;;16.23;12.23;;;;;;;20.65;99.58;98683.12;4375374;80;21460;-85
2022/08/20 02:36:55;;;;;;;18.73;13.22;;;;;;;20.67;99.47;98682.82;4373342;80;21019;-84
2022/08/20 02:43:00;;;;;;;22.70;15.60;;;;;;;20.64;99.32;98682.33;4374277;80;21010;-84
2022/08/20 02:49:03;;;;;;;23.45;14.68;;;;;;;20.57;99.46;98670.08;4371760;80;20971;-85
2022/08/20 02:55:10;;;;;;;24.05;13.72;;;;;;;20.47;99.26;98660.72;4372050;80;21070;-86
2022/08/20 03:01:16;;;;;;;21.37;13.43;;;;;;;20.36;99.59;98654.73;4376208;80;21003;-84
2022/08/20 03:07:17;;;;;;;22.13;12.45;;;;;;;20.30;100.00;98639.22;4370548;80;21071;-84
2022/08/20 03:13:20;;;;;;;20.52;12.63;;;;;;;20.31;100.00;98619.94;4378111;80;21074;-84
2022/08/20 03:19:21;;;;;;;15.03;10.68;;;;;;;20.36;100.00;98614.42;4352024;80;21514;-84
2022/08/20 03:25:24;;;;;;;17.55;12.30;;;;;;;20.47;100.00;98621.16;4367396;80;20998;-85
2022/08/20 03:31:28;;;;;;;16.77;10.55;;;;;;;20.44;100.00;98605.38;4369584;80;21458;-84
2022/08/20 03:37:33;;;;;;;17.30;10.72;;;;;;;20.50;100.00;98616.09;4373262;80;21015;-82
2022/08/20 03:43:36;;;;;;;19.87;12.18;;;;;;;20.59;100.00;98615.40;4375524;80;21038;-84
2022/08/20 03:49:37;;;;;;;16.73;12.25;;;;;;;20.53;100.00;98610.25;4372193;80;21002;-85
2022/08/20 03:55:42;;;;;;;17.02;10.85;;;;;;;20.37;100.00;98609.80;4361187;80;21052;-83
2022/08/20 04:01:43;;;;;;;15.00;10.78;;;;;;;20.41;100.00;98616.01;4359134;80;21551;-85
2022/08/20 04:07:45;;;;;;;16.05;10.78;;;;;;;20.38;100.00;98614.73;4366932;80;20995;-84
2022/08/20 04:13:46;;;;;;;14.55;10.45;;;;;;;20.49;100.00;98638.17;4368963;80;21026;-85
2022/08/20 04:19:48;;;;;;;16.37;11.08;;;;;;;20.58;100.00;98636.86;4376082;80;21484;-87
2022/08/20 04:25:49;;;;;;;14.13;11.40;;;;;;;20.60;100.00;98641.37;4370817;80;21760;-84
2022/08/20 04:31:52;;;;;;;17.73;11.20;;;;;;;20.52;100.00;98641.44;4365954;80;21038;-85
2022/08/20 04:38:05;;;;;;;19.00;11.45;;;;;;;20.43;100.00;98629.45;4358863;80;21011;-85
2022/08/20 04:44:07;;;;;;;17.42;12.20;;;;;;;20.46;100.00;98621.00;4355030;80;21064;-84
2022/08/20 04:50:11;;;;;;;18.48;13.03;;;;;;;20.33;100.00;98603.58;4353053;80;21023;-84
2022/08/20 04:56:13;;;;;;;20.17;13.05;;;;;;;20.33;100.00;98596.63;4349799;80;20956;-84
2022/08/20 05:02:17;;;;;;;22.05;13.90;;;;;;;20.35;100.00;98595.57;4351642;80;21027;-84
2022/08/20 05:08:24;;;;;;;22.75;13.90;;;;;;;20.37;100.00;98602.07;4352434;80;21846;-84
2022/08/20 05:14:26;;;;;;;20.27;13.45;;;;;;;20.46;100.00;98598.77;4315507;80;21028;-84
2022/08/20 05:20:30;;;;;;;21.42;12.28;;;;;;;20.56;100.00;98596.84;4314580;80;21004;-85
2022/08/20 05:26:32;;;;;;;20.00;11.97;;;;;;;20.74;100.00;98579.68;4307276;80;21890;-85
2022/08/20 05:32:34;;;;;;;16.02;10.60;;;;;;;20.87;100.00;98550.41;4308493;80;21058;-85
2022/08/20 05:38:36;;;;;;;14.47;10.35;;;;;;;21.07;100.00;98565.56;4282887;80;21012;-84
2022/08/20 05:44:38;;;;;;;15.55;10.90;;;;;;;21.28;100.00;98564.73;4312224;80;20968;-84
2022/08/20 05:50:41;;;;;;;15.83;9.78;;;;;;;21.47;100.00;98560.80;4318656;80;21027;-85
2022/08/20 05:56:45;;;;;;;12.35;9.90;;;;;;;21.70;100.00;98563.08;4287066;80;21425;-86
2022/08/20 06:09:06;;;;;;;12.25;9.48;;;;;;;22.12;100.00;98587.66;4314419;80;20965;-85
2022/08/20 06:15:10;;;;;;;14.20;9.90;;;;;;;22.22;100.00;98595.59;4306723;80;20979;-84
2022/08/20 06:21:11;;;;;;;16.12;9.85;;;;;;;22.36;100.00;98599.79;4282131;80;21020;-84
2022/08/20 06:27:15;;;;;;;15.48;8.85;;;;;;;22.52;100.00;98618.42;4294291;81;21003;-84
2022/08/20 06:33:16;;;;;;;12.90;8.68;;;;;;;22.63;100.00;98620.13;4303574;80;21075;-85
2022/08/20 06:39:18;;;;;;;14.40;8.95;;;;;;;22.73;100.00;98637.04;4312828;80;21075;-84
2022/08/20 06:45:25;;;;;;;18.10;9.65;;;;;;;22.80;100.00;98628.98;4227036;82;21850;-84
2022/08/20 06:51:26;;;;;;;14.30;8.50;;;;;;;22.79;100.00;98618.44;4178180;83;21029;-84
2022/08/20 06:57:28;;;;;;;14.15;8.73;;;;;;;22.79;100.00;98616.25;4183527;83;20992;-84
2022/08/20 07:03:29;;;;;;;14.45;9.13;;;;;;;22.86;100.00;98620.92;4178003;83;21903;-84
2022/08/20 07:09:31;;;;;;;15.20;10.10;;;;;;;22.98;100.00;98621.98;4177467;83;21069;-84
2022/08/20 07:15:32;;;;;;;15.58;8.75;;;;;;;23.10;99.94;98632.20;4174249;83;20996;-84
2022/08/20 07:21:35;;;;;;;14.40;8.70;;;;;;;23.30;99.57;98624.77;4181422;83;21047;-84
2022/08/20 07:27:36;;;;;;;15.60;9.23;;;;;;;23.54;98.87;98623.60;4179037;83;21013;-85
2022/08/20 07:33:39;;;;;;;19.65;9.73;;;;;;;23.80;98.04;98617.00;4177098;83;21032;-84
2022/08/20 07:39:41;;;;;;;13.78;8.40;;;;;;;23.94;97.23;98612.91;4162217;83;21007;-87
2022/08/20 07:45:42;;;;;;;13.60;9.40;;;;;;;24.07;96.97;98608.52;4247352;82;21562;-84
2022/08/20 07:51:44;;;;;;;13.68;9.35;;;;;;;24.27;96.87;98607.31;4191784;83;21027;-84
2022/08/20 07:57:48;;;;;;;12.50;8.20;;;;;;;24.44;95.98;98600.82;4319398;80;21028;-84
2022/08/20 08:03:50;;;;;;;15.55;8.58;;;;;;;24.85;94.64;98578.75;4322559;80;21047;-84
2022/08/20 08:09:54;;;;;;;11.57;8.73;;;;;;;24.91;92.92;98582.42;4228086;82;21899;-84
2022/08/20 08:16:00;;;;;;;10.30;8.80;;;;;;;25.19;90.74;98589.30;4314192;80;21067;-84
2022/08/20 08:22:02;;;;;;;15.10;8.28;;;;;;;25.55;91.71;98584.10;4321900;80;20977;-84
2022/08/20 08:28:04;;;;;;;12.47;8.15;;;;;;;25.95;90.16;98588.41;4315423;80;20993;-86
2022/08/20 08:34:06;;;;;;;12.78;9.03;;;;;;;26.11;87.48;98582.92;4307895;80;21000;-84
2022/08/20 08:40:08;;;;;;;13.80;8.65;;;;;;;26.18;87.43;98584.55;4227175;82;21603;-85
2022/08/20 08:46:11;;;;;;;15.75;8.78;;;;;;;26.45;84.70;98582.09;4230074;82;21312;-83
2022/08/20 08:52:30;;;;;;;11.85;8.83;;;;;;;26.64;85.05;98575.61;4197837;83;21044;-85
2022/08/20 08:58:34;;;;;;;15.15;8.53;;;;;;;26.85;83.47;98563.84;4263079;81;21012;-85
2022/08/20 09:04:39;;;;;;;14.55;8.50;;;;;;;27.03;83.99;98565.57;4143766;83;22273;-84
2022/08/20 09:10:41;;;;;;;10.80;9.00;;;;;;;27.27;79.44;98563.25;4315558;80;20991;-85
2022/08/20 09:16:45;;;;;;;11.12;8.35;;;;;;;27.35;80.56;98565.75;4324247;80;21043;-85
2022/08/20 09:22:46;;;;;;;10.63;8.23;;;;;;;27.82;79.71;98558.70;4316313;80;21011;-86
2022/08/20 09:28:47;;;;;;;13.10;8.73;;;;;;;28.26;79.01;98557.58;4303872;80;21035;-85
2022/08/20 09:34:55;;;;;;;9.85;8.00;;;;;;;28.66;77.55;98546.77;4323211;80;21993;-85
2022/08/20 09:40:55;;;;;;;12.63;8.55;;;;;;;29.28;76.68;98544.22;4311433;80;20988;-86
2022/08/20 09:46:56;;;;;;;10.43;7.15;;;;;;;29.75;75.61;98538.20;4226537;82;21500;-86
2022/08/20 09:53:01;;;;;;;10.93;7.85;;;;;;;30.35;74.33;98538.71;4311889;80;21448;-85
2022/08/20 09:59:03;;;;;;;9.93;7.00;;;;;;;30.89;72.48;98534.09;4318200;80;21036;-86
2022/08/20 10:05:06;;;;;;;12.00;6.97;;;;;;;31.16;70.35;98528.89;4307195;80;21032;-86
2022/08/20 10:11:08;;;;;;;10.60;6.42;;;;;;;31.72;66.96;98544.77;4302386;80;21016;-84
2022/08/20 10:17:09;;;;;;;9.23;6.80;;;;;;;32.04;63.40;98531.61;4308177;80;21618;-86
2022/08/20 10:23:14;;;;;;;9.23;6.30;;;;;;;32.20;63.79;98524.23;4309505;80;21964;-86
2022/08/20 10:29:15;;;;;;;9.40;7.20;;;;;;;32.75;63.12;98510.13;4300103;80;21000;-87
2022/08/20 10:35:18;;;;;;;10.20;6.15;;;;;;;32.90;62.38;98519.61;4225910;82;21565;-85
2022/08/20 10:41:20;;;;;;;8.95;6.60;;;;;;;32.81;60.80;98514.31;4245043;82;20999;-86
2022/08/20 10:47:28;;;;;;;8.28;5.78;;;;;;;33.01;59.95;98509.52;4255503;82;21026;-86
2022/08/20 10:53:30;;;;;;;9.33;6.08;;;;;;;32.57;57.41;98498.16;4332009;80;21024;-85
2022/08/20 10:59:35;;;;;;;12.40;6.70;;;;;;;32.65;56.15;98502.55;4316892;80;21035;-87
2022/08/20 11:05:37;;;;;;;11.83;6.75;;;;;;;32.52;56.68;98504.66;4206044;82;21501;-86
2022/08/20 11:11:38;;;;;;;9.38;6.15;;;;;;;31.99;55.56;98497.05;4321296;80;21005;-87
2022/08/20 11:17:42;;;;;;;11.12;6.40;;;;;;;31.65;55.85;98493.77;4320115;80;20948;-86
2022/08/20 11:23:44;;;;;;;11.15;6.85;;;;;;;31.25;56.06;98484.73;4315940;80;21031;-86
2022/08/20 11:29:45;;;;;;;8.48;6.40;;;;;;;31.11;56.30;98473.16;4317257;80;21027;-85
2022/08/20 11:35:46;;;;;;;8.53;6.72;;;;;;;31.06;55.63;98471.14;4312784;80;21020;-86
2022/08/20 11:41:48;;;;;;;7.62;6.75;;;;;;;30.86;55.19;98470.77;4313537;80;21938;-85
2022/08/20 11:47:51;;;;;;;9.00;6.80;;;;;;;31.11;55.80;98468.14;4315766;80;21068;-86
2022/08/20 11:53:52;;;;;;;7.20;6.50;;;;;;;30.88;56.05;98455.48;4322358;80;21019;-85
2022/08/20 11:59:56;;;;;;;8.53;6.78;;;;;;;30.32;56.15;98455.05;4319105;80;21858;-86
2022/08/20 12:05:57;;;;;;;9.30;6.85;;;;;;;29.78;57.01;98454.72;4301620;80;21012;-84
2022/08/20 12:11:59;;;;;;;10.88;7.53;;;;;;;29.47;57.50;98440.92;4317343;80;21023;-85
2022/08/20 12:18:03;;;;;;;8.35;6.83;;;;;;;28.94;58.08;98436.31;4320920;80;21003;-85
2022/08/20 12:24:05;;;;;;;8.38;6.83;;;;;;;28.71;58.76;98449.48;4306856;80;21367;-87
2022/08/20 12:30:14;;;;;;;8.45;6.47;;;;;;;28.58;59.42;98466.12;4320665;80;21000;-87
2022/08/20 12:36:15;;;;;;;10.53;7.65;;;;;;;28.24;59.72;98482.09;4327606;80;20956;-86
2022/08/20 12:42:17;;;;;;;15.78;7.67;;;;;;;27.93;60.30;98509.57;4309839;80;21007;-85
2022/08/20 12:48:19;;;;;;;15.58;7.78;;;;;;;27.37;61.53;98544.95;4219279;82;21094;-86
2022/08/20 12:54:21;;;;;;;19.25;8.58;;;;;;;26.91;63.04;98566.70;4307845;80;21051;-87
2022/08/20 13:00:30;;;;;;;22.60;8.18;;;;;;;26.50;63.95;98586.26;4317320;80;21035;-86
2022/08/20 13:06:31;;;;;;;19.60;8.20;;;;;;;26.08;64.73;98598.70;4316591;80;20988;-84
2022/08/20 13:12:33;;;;;;;18.27;7.90;;;;;;;25.76;66.23;98624.19;4303290;80;21564;-86
2022/08/20 13:18:34;;;;;;;14.47;7.80;;;;;;;25.48;66.72;98648.94;4313441;80;21607;-86
2022/08/20 13:24:37;;;;;;;13.95;7.28;;;;;;;25.15;67.19;98672.10;4222324;82;21411;-83
2022/08/20 13:30:39;;;;;;;8.95;3.87;;;;;;;24.88;68.96;98728.34;4189545;83;21552;-83
2022/08/20 13:36:41;;;;;;;4.20;1.70;;;;;;;24.35;68.81;98753.31;4173944;83;21632;-82
2022/08/20 13:42:42;;;;;;;6.78;2.10;;;;;;;23.64;64.90;98741.70;4173799;83;21004;-81
2022/08/20 13:48:44;;;;;;;4.92;1.60;;;;;;;22.99;65.79;98739.39;4307424;80;21028;-83
2022/08/20 13:54:45;;;;;;;5.60;2.42;;;;;;;22.80;67.36;98706.48;4320424;80;20964;-82
2022/08/20 14:00:46;;;;;;;4.65;2.10;;;;;;;22.49;68.04;98679.28;4318555;80;21007;-87
2022/08/20 14:06:48;;;;;;;7.22;2.58;;;;;;;22.18;69.47;98640.95;4225263;82;21011;-83
2022/08/20 14:12:50;;;;;;;10.23;2.83;;;;;;;21.95;70.59;98626.18;4319552;80;21532;-83
2022/08/20 14:18:51;;;;;;;3.90;2.55;;;;;;;21.68;72.40;98619.07;4317901;80;21477;-83
2022/08/20 14:24:53;;;;;;;6.17;2.80;;;;;;;21.53;74.32;98609.73;4319887;80;21012;-82
2022/08/20 14:30:54;;;;;;;6.17;2.83;;;;;;;21.46;75.19;98596.86;4291047;80;21474;-82
2022/08/20 14:36:57;;;;;;;8.30;3.35;;;;;;;21.36;76.25;98600.81;4305950;80;20977;-82
2022/08/20 14:42:58;;;;;;;5.90;3.10;;;;;;;21.21;77.18;98608.77;4311887;80;21009;-81
2022/08/20 14:48:59;;;;;;;6.58;3.98;;;;;;;21.07;78.57;98607.91;4316382;80;21028;-82
2022/08/20 14:55:05;;;;;;;7.05;4.17;;;;;;;21.03;78.88;98601.71;4316435;80;21556;-83
2022/08/20 15:01:06;;;;;;;7.95;4.80;;;;;;;20.94;79.79;98602.38;4310489;80;21606;-83
2022/08/20 15:07:33;;;;;;;6.08;4.40;;;;;;;20.96;81.05;98604.73;4315210;80;20949;-81
2022/08/20 15:13:34;;;;;;;8.23;4.90;;;;;;;20.94;81.88;98588.47;4314450;80;21020;-82
2022/08/20 15:19:35;;;;;;;5.83;4.70;;;;;;;20.97;83.10;98602.14;4223258;82;21527;-83
2022/08/20 15:25:37;;;;;;;15.10;5.00;;;;;;;21.07;83.96;98602.34;4190119;83;21052;-83
2022/08/20 15:31:38;;;;;;;8.68;5.28;;;;;;;21.03;84.04;98614.23;4191075;82;20976;-83
2022/08/20 15:37:43;;;;;;;6.53;4.95;;;;;;;20.91;84.59;98626.16;4309293;80;20987;-83
2022/08/20 15:43:44;;;;;;;7.40;4.72;;;;;;;20.84;85.40;98642.52;4322090;80;21032;-83
2022/08/20 15:49:47;;;;;;;8.13;4.67;;;;;;;20.80;85.91;98641.05;4319964;80;21917;-82
2022/08/20 15:55:54;;;;;;;8.18;4.58;;;;;;;20.82;86.67;98628.87;4320213;80;20984;-81
2022/08/20 16:02:26;;;;;;;7.92;5.03;;;;;;;20.90;88.00;98621.83;4318569;80;21838;-82
2022/08/20 16:09:08;;;;;;;8.40;4.92;;;;;;;20.89;87.89;98624.45;4306433;80;20976;-83
2022/08/20 16:15:16;;;;;;;9.63;6.42;;;;;;;20.81;88.66;98618.38;4320728;80;21019;-82
2022/08/20 16:21:21;;;;;;;10.05;6.08;;;;;;;20.84;89.00;98608.34;4318610;80;20984;-82
2022/08/20 16:27:34;;;;;;;8.45;6.12;;;;;;;20.69;89.70;98596.94;4319919;80;22028;-83
2022/08/20 16:34:05;;;;;;;10.38;6.50;;;;;;;20.71;90.16;98586.14;4318629;80;21024;-81
2022/08/20 16:40:51;;;;;;;9.38;6.35;;;;;;;20.71;89.98;98601.45;4295609;80;21012;-82
2022/08/20 16:47:06;;;;;;;8.80;6.53;;;;;;;20.72;90.88;98598.81;4314410;80;21008;-82
2022/08/20 16:53:19;;;;;;;9.00;6.58;;;;;;;20.70;91.19;98589.38;4316963;80;21032;-83
2022/08/20 16:59:21;;;;;;;10.53;8.30;;;;;;;20.60;90.97;98623.89;4320546;80;21070;-82
2022/08/20 17:05:28;;;;;;;9.10;7.12;;;;;;;20.40;91.68;98631.14;4226235;82;20968;-83
2022/08/20 17:11:31;;;;;;;12.13;7.65;;;;;;;20.39;92.06;98630.96;4183104;83;21052;-84
2022/08/20 17:17:36;;;;;;;8.75;7.45;;;;;;;20.34;92.43;98634.33;4156490;84;20992;-83
2022/08/20 17:23:43;;;;;;;10.00;7.58;;;;;;;20.34;93.16;98632.16;4175059;83;20992;-84
2022/08/20 17:29:53;;;;;;;11.20;6.62;;;;;;;20.27;92.30;98642.89;4159268;83;20968;-82
2022/08/20 17:35:59;;;;;;;9.05;7.53;;;;;;;20.18;93.30;98642.80;4178965;83;21050;-82
2022/08/20 17:42:12;;;;;;;11.50;7.93;;;;;;;20.15;93.51;98631.20;4159135;83;22040;-82
2022/08/20 17:48:28;;;;;;;10.75;8.03;;;;;;;20.00;93.98;98624.50;4172810;83;20999;-84
2022/08/20 17:54:35;;;;;;;12.35;8.45;;;;;;;19.93;95.02;98609.47;4102095;82;10000348;-83
2022/08/20 18:00:37;;;;;;;12.95;8.30;;;;;;;19.90;95.08;98601.42;4219117;82;20967;-83
2022/08/20 18:07:16;;;;;;;11.75;8.73;;;;;;;19.98;95.87;98586.05;4231103;82;21000;-83
2022/08/20 18:13:21;;;;;;;11.25;8.88;;;;;;;19.80;95.12;98594.20;4225026;82;20975;-84
2022/08/20 18:19:50;;;;;;;12.55;8.68;;;;;;;19.72;95.42;98609.53;4236905;82;21942;-83
2022/08/20 18:26:06;;;;;;;10.65;8.83;;;;;;;19.75;96.72;98607.86;4228761;82;21082;-83
2022/08/20 18:32:32;;;;;;;14.33;9.13;;;;;;;19.74;96.90;98618.80;4226866;82;21002;-83
2022/08/20 18:38:37;;;;;;;16.35;11.93;;;;;;;19.70;97.14;98618.16;4226697;82;21008;-84
2022/08/20 18:44:46;;;;;;;21.65;13.65;;;;;;;19.61;97.39;98609.09;4149418;83;21012;-84
2022/08/20 18:50:53;;;;;;;18.15;13.58;;;;;;;19.68;97.99;98608.88;4153235;83;21008;-83
2022/08/20 18:57:08;;;;;;;17.02;12.63;;;;;;;19.69;97.98;98609.04;4153982;83;20976;-84
2022/08/20 19:03:18;;;;;;;18.05;12.37;;;;;;;19.58;97.88;98607.80;4148895;84;20984;-86
2022/08/20 19:09:47;;;;;;;19.82;11.53;;;;;;;19.54;98.40;98601.59;4155748;83;21438;-83
2022/08/20 19:15:54;;;;;;;17.95;11.75;;;;;;;19.58;99.03;98588.37;4152171;83;21015;-84
2022/08/20 19:21:55;;;;;;;17.00;11.68;;;;;;;19.41;98.42;98591.09;4152722;83;21083;-83
2022/08/20 19:28:01;;;;;;;17.62;12.68;;;;;;;19.25;99.03;98589.16;4153370;83;20975;-83
2022/08/20 19:34:13;;;;;;;19.87;12.40;;;;;;;19.30;99.65;98597.56;4170822;82;21018;-83
2022/08/20 19:40:25;;;;;;;15.23;11.90;;;;;;;19.28;100.00;98586.91;4198587;80;21035;-83
2022/08/20 19:46:38;;;;;;;19.25;12.88;;;;;;;19.30;100.00;98591.42;4307680;80;20996;-83
2022/08/20 19:52:48;;;;;;;19.55;13.00;;;;;;;19.31;100.00;98588.05;4314439;80;20979;-83
2022/08/20 19:59:04;;;;;;;18.62;13.13;;;;;;;19.35;100.00;98583.94;4304730;80;21048;-83
2022/08/20 20:05:08;;;;;;;17.92;13.03;;;;;;;19.41;100.00;98586.33;4290247;80;21461;-83
2022/08/20 20:11:17;;;;;;;21.90;14.05;;;;;;;19.42;100.00;98587.11;4315109;80;20977;-89
2022/08/20 20:17:27;;;;;;;20.70;15.25;;;;;;;19.18;100.00;98596.31;4318324;80;21980;-83
2022/08/20 20:23:31;;;;;;;15.35;13.30;;;;;;;19.08;100.00;98592.45;4314885;80;21965;-84
2022/08/20 20:29:36;;;;;;;25.10;14.73;;;;;;;19.17;100.00;98605.09;4314347;80;21071;-83
2022/08/20 20:35:37;;;;;;;32.65;20.90;;;;;;;19.12;100.00;98607.77;4319538;80;20943;-87
2022/08/20 20:41:44;;;;;;;32.58;20.30;;;;;;;18.97;100.00;98626.05;4312981;80;21008;-84
2022/08/20 20:47:51;;;;;;;25.95;15.95;;;;;;;18.97;100.00;98621.89;4320568;80;20960;-83
2022/08/20 20:53:55;;;;;;;20.97;14.65;;;;;;;19.03;100.00;98615.21;4306452;80;21055;-84
2022/08/20 20:59:56;;;;;;;15.60;12.65;;;;;;;19.02;100.00;98615.02;4306086;80;21098;-87
2022/08/20 21:05:58;;;;;;;14.65;10.70;;;;;;;19.04;100.00;98620.91;4305986;80;20981;-84
2022/08/20 21:11:59;;;;;;;15.03;10.18;;;;;;;19.14;100.00;98619.84;4308680;80;21606;-83
2022/08/20 21:18:05;;;;;;;13.68;9.88;;;;;;;19.17;100.00;98617.57;4310451;80;20984;-83
2022/08/20 21:24:07;;;;;;;15.15;10.82;;;;;;;19.17;100.00;98620.34;4307469;80;21016;-83
2022/08/20 21:30:09;;;;;;;17.52;9.90;;;;;;;19.15;100.00;98608.90;4320405;80;21031;-83
2022/08/20 21:36:12;;;;;;;15.38;9.00;;;;;;;19.20;100.00;98601.42;4314167;80;20944;-82
2022/08/20 21:42:16;;;;;;;12.33;9.15;;;;;;;19.24;100.00;98597.92;4306864;80;21542;-83
2022/08/20 21:48:18;;;;;;;15.32;9.18;;;;;;;19.25;100.00;98602.24;4319619;80;21035;-83
2022/08/20 21:54:21;;;;;;;13.00;9.58;;;;;;;19.25;100.00;98598.87;4307505;80;21000;-83
2022/08/20 22:00:47;;;;;;;15.00;9.85;;;;;;;19.19;100.00;98585.38;4312488;80;21519;-83
2022/08/20 22:06:49;;;;;;;23.60;12.87;;;;;;;19.16;100.00;98584.88;4309566;80;21051;-82
2022/08/20 22:12:50;;;;;;;31.73;13.78;;;;;;;19.11;100.00;98583.24;4312984;80;21531;-83
2022/08/20 22:18:52;;;;;;;34.70;15.78;;;;;;;19.07;100.00;98582.58;4306837;80;21063;-83
2022/08/20 22:24:53;;;;;;;26.52;15.08;;;;;;;19.02;100.00;98576.97;4305555;80;21043;-83
2022/08/20 22:30:55;;;;;;;23.65;14.35;;;;;;;18.94;100.00;98572.84;4309282;80;20992;-84
2022/08/20 22:36:58;;;;;;;22.00;12.28;;;;;;;18.95;100.00;98569.48;4315135;80;21028;-84
2022/08/20 22:42:59;;;;;;;20.27;11.68;;;;;;;18.98;100.00;98566.58;4309260;80;21000;-84
2022/08/20 22:49:03;;;;;;;18.48;11.63;;;;;;;19.01;100.00;98556.02;4292481;80;20979;-83
2022/08/20 22:55:05;;;;;;;16.75;11.08;;;;;;;18.97;100.00;98569.79;4316277;80;20984;-83
2022/08/20 23:01:08;;;;;;;12.35;10.48;;;;;;;18.87;100.00;98584.76;4307452;80;20944;-83
2022/08/20 23:07:12;;;;;;;16.82;10.75;;;;;;;18.85;100.00;98580.25;4309054;80;21499;-84
2022/08/20 23:13:13;;;;;;;15.78;9.73;;;;;;;18.83;100.00;98583.47;4306776;80;21007;-83
2022/08/20 23:19:21;;;;;;;16.82;10.43;;;;;;;18.93;100.00;98571.91;4228791;82;21559;-84
2022/08/20 23:25:23;;;;;;;14.50;11.40;;;;;;;18.94;100.00;98559.58;4315695;80;20996;-83
2022/08/20 23:31:25;;;;;;;17.98;11.20;;;;;;;18.95;100.00;98559.77;4308824;80;21548;-84
2022/08/20 23:37:27;;;;;;;19.82;13.20;;;;;;;18.97;100.00;98552.55;4312484;80;21004;-84
2022/08/20 23:43:29;;;;;;;18.98;13.98;;;;;;;19.00;100.00;98550.28;4316842;80;22134;-83
2022/08/20 23:49:31;;;;;;;17.73;13.08;;;;;;;18.92;100.00;98550.31;4310297;80;21469;-83
2022/08/20 23:55:33;;;;;;;16.65;11.83;;;;;;;18.96;100.00;98544.06;4316339;80;20976;-83
